Altamont, Illinois
Current Conditions -  °F | °C
As of 2:55 AM on Monday 20 Oct 2014 (Local Time) from K1H2 Reporting Station
Overcast Overcast  
Wind Chill: 11°   Ceiling: 10000
Heat Index: 11°   Visibility: 10mi
Dew Point:   Wind: 5mph
Humidity: 76%   Direction: 200°SSW
Pressure: 30"   Gusts: NA
Location:  39.06°N, 88.75°W
Report Text: K1H2 200755Z AUTO 20004KT 10SM OVC100 11/07 A3000 RMK AO2 T01050065
Loading
Personal Weather Stations






























Interactive Weather Map
Tropical Storm Tracking
New forecast layout! Learn more

10-Day Weather Forecast

Advertisements
Track Severe Weather on mobile